Aviation Digital Data Service (ADDS)

Output produced by TAFs form (1436 UTC 24 July 2017)
found at http://www.aviationweather.gov/adds/tafs/
 
METAR text: LTBA 241420Z 06010KT 030V120 CAVOK 33/15 Q1008 NOSIG RMK RWY17L 04011KT 010V070 RWY05 03011KT RWY23 05011KT 020V080
Conditions at: LTBA (ISTANBUL/ATATURK, TR) observed 1420 UTC 24 July 2017
Temperature: 33.0°C (91°F)
Dewpoint: 15.0°C (59°F) [RH = 34%]
Pressure (altimeter): 29.76 inches Hg (1008.0 mb)
Winds: from the ENE (60 degrees) at 12 MPH (10 knots; 5.2 m/s)
Visibility: 6 or more miles (10+ km)
Ceiling: ceiling and visibility are OK
Clouds: unknown
Weather: no significant weather observed at this time

Forecast for: LTBA (ISTANBUL/ATATURK, TR)
Text: TAF AMD LTBA 241324Z 2413/2518 04012KT CAVOK
Forecast period: 1300 UTC 24 July 2017 to 0000 UTC 25 July 2017
Forecast type: FROM: standard forecast or significant change
Winds: from the NE (40 degrees) at 14 MPH (12 knots; 6.2 m/s)
Visibility: 6 or more miles (10+ km)
Clouds: not forecast
Weather: NSW  (no significant weather)
Text: BECMG 2500/2503 VRB02KT
Forecast period: 0000 to 1800 UTC 25 July 2017
Forecast type: BECOMING: Conditions expected to become as follows by 0300 UTC 25 July 2017
Winds: variable direction winds at 2 MPH (2 knots; 1.0 m/s)
Visibility: 6 or more miles (10+ km)
Weather: NSW  (no significant weather)